sensor_id;sensor_type;location;lat;lon;timestamp;pressure;altitude;pressure_sealevel;temperature;humidity
76973;BME280;65907;53.640;10.050;2024-02-28T00:01:52;101299.22;;;21.56;40.25
76973;BME280;65907;53.640;10.050;2024-02-28T00:04:18;101295.19;;;21.52;40.14
76973;BME280;65907;53.640;10.050;2024-02-28T00:06:43;101303.75;;;21.54;40.38
76973;BME280;65907;53.640;10.050;2024-02-28T00:09:10;101307.69;;;21.48;40.38
76973;BME280;65907;53.640;10.050;2024-02-28T00:11:36;101310.16;;;21.49;40.21
76973;BME280;65907;53.640;10.050;2024-02-28T00:14:01;101315.53;;;21.48;40.37
76973;BME280;65907;53.640;10.050;2024-02-28T00:16:27;101310.50;;;21.45;40.05
76973;BME280;65907;53.640;10.050;2024-02-28T00:18:52;101306.34;;;21.42;40.21
76973;BME280;65907;53.640;10.050;2024-02-28T00:21:20;101306.47;;;21.41;40.25
76973;BME280;65907;53.640;10.050;2024-02-28T00:23:45;101308.38;;;21.39;40.32
76973;BME280;65907;53.640;10.050;2024-02-28T00:26:11;101302.31;;;21.38;40.04
76973;BME280;65907;53.640;10.050;2024-02-28T00:28:37;101297.31;;;21.35;39.92
76973;BME280;65907;53.640;10.050;2024-02-28T00:31:02;101302.66;;;21.33;40.42
76973;BME280;65907;53.640;10.050;2024-02-28T00:33:29;101300.03;;;21.33;40.22
76973;BME280;65907;53.640;10.050;2024-02-28T00:35:55;101294.19;;;21.30;40.22
76973;BME280;65907;53.640;10.050;2024-02-28T00:38:20;101294.34;;;21.28;40.13
76973;BME280;65907;53.640;10.050;2024-02-28T00:40:45;101304.09;;;21.26;40.26
76973;BME280;65907;53.640;10.050;2024-02-28T00:43:13;101302.19;;;21.28;40.47
76973;BME280;65907;53.640;10.050;2024-02-28T00:45:38;101306.69;;;21.26;40.69
76973;BME280;65907;53.640;10.050;2024-02-28T00:48:03;101305.03;;;21.25;40.10
76973;BME280;65907;53.640;10.050;2024-02-28T00:50:29;101301.81;;;21.22;40.40
76973;BME280;65907;53.640;10.050;2024-02-28T00:52:54;101299.53;;;21.17;40.27
76973;BME280;65907;53.640;10.050;2024-02-28T00:55:19;101310.69;;;21.19;40.29
76973;BME280;65907;53.640;10.050;2024-02-28T00:57:44;101310.00;;;21.17;40.37
76973;BME280;65907;53.640;10.050;2024-02-28T01:00:10;101304.03;;;21.15;39.86
76973;BME280;65907;53.640;10.050;2024-02-28T01:02:39;101303.22;;;21.14;40.31
76973;BME280;65907;53.640;10.050;2024-02-28T01:05:04;101307.50;;;21.15;40.20
76973;BME280;65907;53.640;10.050;2024-02-28T01:07:29;101311.88;;;21.15;40.25
76973;BME280;65907;53.640;10.050;2024-02-28T01:09:54;101314.63;;;21.13;40.52
76973;BME280;65907;53.640;10.050;2024-02-28T01:12:20;101315.69;;;21.11;40.08
76973;BME280;65907;53.640;10.050;2024-02-28T01:14:45;101314.03;;;21.10;40.60
76973;BME280;65907;53.640;10.050;2024-02-28T01:17:10;101314.84;;;21.10;40.32
76973;BME280;65907;53.640;10.050;2024-02-28T01:19:38;101309.84;;;21.07;40.13
76973;BME280;65907;53.640;10.050;2024-02-28T01:22:03;101323.63;;;21.09;40.12
76973;BME280;65907;53.640;10.050;2024-02-28T01:24:28;101310.91;;;21.04;39.96
76973;BME280;65907;53.640;10.050;2024-02-28T01:26:56;101309.25;;;21.03;40.10
76973;BME280;65907;53.640;10.050;2024-02-28T01:29:21;101309.34;;;21.02;40.19
76973;BME280;65907;53.640;10.050;2024-02-28T01:31:47;101310.91;;;21.04;40.39
76973;BME280;65907;53.640;10.050;2024-02-28T01:34:12;101304.25;;;21.00;40.17
76973;BME280;65907;53.640;10.050;2024-02-28T01:36:37;101308.41;;;21.03;40.01
76973;BME280;65907;53.640;10.050;2024-02-28T01:39:02;101304.03;;;21.03;40.09
76973;BME280;65907;53.640;10.050;2024-02-28T01:41:31;101297.22;;;21.01;40.22
76973;BME280;65907;53.640;10.050;2024-02-28T01:43:56;101307.59;;;21.02;40.12
76973;BME280;65907;53.640;10.050;2024-02-28T01:46:28;101304.75;;;21.05;39.83
76973;BME280;65907;53.640;10.050;2024-02-28T01:48:56;101300.47;;;21.04;39.99
76973;BME280;65907;53.640;10.050;2024-02-28T01:51:23;101295.00;;;21.08;40.00
76973;BME280;65907;53.640;10.050;2024-02-28T01:53:51;101302.94;;;21.06;40.02
76973;BME280;65907;53.640;10.050;2024-02-28T01:56:17;101302.13;;;21.05;40.26
76973;BME280;65907;53.640;10.050;2024-02-28T01:58:47;101297.72;;;21.06;40.01
76973;BME280;65907;53.640;10.050;2024-02-28T02:01:13;101295.94;;;21.06;40.08
76973;BME280;65907;53.640;10.050;2024-02-28T02:03:39;101290.00;;;21.04;39.94
76973;BME280;65907;53.640;10.050;2024-02-28T02:06:04;101285.59;;;21.05;40.07
76973;BME280;65907;53.640;10.050;2024-02-28T02:08:30;101291.91;;;21.02;39.73
76973;BME280;65907;53.640;10.050;2024-02-28T02:10:58;101285.81;;;21.02;39.96
76973;BME280;65907;53.640;10.050;2024-02-28T02:13:23;101287.63;;;21.01;39.92
76973;BME280;65907;53.640;10.050;2024-02-28T02:15:48;101283.34;;;21.00;40.13
76973;BME280;65907;53.640;10.050;2024-02-28T02:18:13;101282.50;;;21.00;39.91
76973;BME280;65907;53.640;10.050;2024-02-28T02:20:40;101298.41;;;20.97;40.04
76973;BME280;65907;53.640;10.050;2024-02-28T02:23:11;101289.72;;;20.96;39.74
76973;BME280;65907;53.640;10.050;2024-02-28T02:25:43;101300.06;;;20.98;39.43
76973;BME280;65907;53.640;10.050;2024-02-28T02:28:08;101290.66;;;20.95;39.71
76973;BME280;65907;53.640;10.050;2024-02-28T02:30:33;101281.06;;;20.96;39.76
76973;BME280;65907;53.640;10.050;2024-02-28T02:32:59;101287.25;;;20.95;39.78
76973;BME280;65907;53.640;10.050;2024-02-28T02:35:24;101281.16;;;20.94;39.46
76973;BME280;65907;53.640;10.050;2024-02-28T02:37:49;101267.13;;;20.95;39.75
76973;BME280;65907;53.640;10.050;2024-02-28T02:40:14;101272.59;;;20.92;39.55
76973;BME280;65907;53.640;10.050;2024-02-28T02:42:42;101277.00;;;20.91;39.72
76973;BME280;65907;53.640;10.050;2024-02-28T02:45:07;101281.53;;;20.89;39.60
76973;BME280;65907;53.640;10.050;2024-02-28T02:47:35;101278.16;;;20.87;39.50
76973;BME280;65907;53.640;10.050;2024-02-28T02:50:03;101282.69;;;20.85;39.75
76973;BME280;65907;53.640;10.050;2024-02-28T02:52:29;101274.84;;;20.85;39.79
76973;BME280;65907;53.640;10.050;2024-02-28T02:54:54;101272.34;;;20.84;39.87
76973;BME280;65907;53.640;10.050;2024-02-28T02:57:19;101274.97;;;20.84;39.40
76973;BME280;65907;53.640;10.050;2024-02-28T02:59:44;101280.28;;;20.82;39.59
76973;BME280;65907;53.640;10.050;2024-02-28T03:02:10;101286.38;;;20.83;39.77
76973;BME280;65907;53.640;10.050;2024-02-28T03:04:35;101286.38;;;20.83;39.53
76973;BME280;65907;53.640;10.050;2024-02-28T03:07:00;101291.59;;;20.83;39.33
76973;BME280;65907;53.640;10.050;2024-02-28T03:09:26;101288.28;;;20.81;39.83
76973;BME280;65907;53.640;10.050;2024-02-28T03:11:51;101292.66;;;20.80;39.96
76973;BME280;65907;53.640;10.050;2024-02-28T03:14:19;101292.53;;;20.82;39.79
76973;BME280;65907;53.640;10.050;2024-02-28T03:16:47;101290.94;;;20.79;39.54
76973;BME280;65907;53.640;10.050;2024-02-28T03:19:13;101297.13;;;20.78;39.51
76973;BME280;65907;53.640;10.050;2024-02-28T03:21:39;101294.63;;;20.76;39.84
76973;BME280;65907;53.640;10.050;2024-02-28T03:24:06;101299.03;;;20.76;39.65
76973;BME280;65907;53.640;10.050;2024-02-28T03:26:31;101299.03;;;20.76;39.30
76973;BME280;65907;53.640;10.050;2024-02-28T03:28:59;101306.00;;;20.75;39.60
76973;BME280;65907;53.640;10.050;2024-02-28T03:31:24;101302.69;;;20.73;39.44
76973;BME280;65907;53.640;10.050;2024-02-28T03:33:50;101308.97;;;20.71;39.39
76973;BME280;65907;53.640;10.050;2024-02-28T03:36:15;101308.13;;;20.70;39.72
76973;BME280;65907;53.640;10.050;2024-02-28T03:38:41;101311.59;;;20.71;39.39
76973;BME280;65907;53.640;10.050;2024-02-28T03:41:06;101310.75;;;20.70;39.69
76973;BME280;65907;53.640;10.050;2024-02-28T03:43:31;101316.91;;;20.69;39.56
76973;BME280;65907;53.640;10.050;2024-02-28T03:45:59;101319.66;;;20.68;39.81
76973;BME280;65907;53.640;10.050;2024-02-28T03:48:24;101313.59;;;20.67;39.46
76973;BME280;65907;53.640;10.050;2024-02-28T03:50:49;101321.44;;;20.67;39.52
76973;BME280;65907;53.640;10.050;2024-02-28T03:53:15;101323.22;;;20.67;39.65
76973;BME280;65907;53.640;10.050;2024-02-28T03:55:40;101315.38;;;20.67;39.88
76973;BME280;65907;53.640;10.050;2024-02-28T03:58:06;101318.09;;;20.65;39.41
76973;BME280;65907;53.640;10.050;2024-02-28T04:00:33;101320.94;;;20.62;39.56
76973;BME280;65907;53.640;10.050;2024-02-28T04:02:59;101326.97;;;20.62;39.56
76973;BME280;65907;53.640;10.050;2024-02-28T04:05:24;101330.53;;;20.61;39.71
76973;BME280;65907;53.640;10.050;2024-02-28T04:07:49;101335.75;;;20.61;39.43
76973;BME280;65907;53.640;10.050;2024-02-28T04:10:15;101335.88;;;20.60;39.50
76973;BME280;65907;53.640;10.050;2024-02-28T04:12:42;101335.16;;;20.58;39.46
76973;BME280;65907;53.640;10.050;2024-02-28T04:15:07;101340.41;;;20.58;39.60
76973;BME280;65907;53.640;10.050;2024-02-28T04:17:32;101337.06;;;20.56;39.73
76973;BME280;65907;53.640;10.050;2024-02-28T04:19:57;101324.81;;;20.56;39.28
76973;BME280;65907;53.640;10.050;2024-02-28T04:22:23;101328.28;;;20.57;39.60
76973;BME280;65907;53.640;10.050;2024-02-28T04:24:48;101324.94;;;20.55;39.32
76973;BME280;65907;53.640;10.050;2024-02-28T04:27:13;101327.56;;;20.55;39.37
76973;BME280;65907;53.640;10.050;2024-02-28T04:29:38;101320.53;;;20.55;39.59
76973;BME280;65907;53.640;10.050;2024-02-28T04:32:04;101322.44;;;20.53;39.66
76973;BME280;65907;53.640;10.050;2024-02-28T04:34:29;101333.81;;;20.52;39.52
76973;BME280;65907;53.640;10.050;2024-02-28T04:36:56;101338.19;;;20.52;39.39
76973;BME280;65907;53.640;10.050;2024-02-28T04:39:22;101339.16;;;20.51;39.47
76973;BME280;65907;53.640;10.050;2024-02-28T04:41:47;101340.72;;;20.53;39.64
76973;BME280;65907;53.640;10.050;2024-02-28T04:44:12;101344.28;;;20.52;39.48
76973;BME280;65907;53.640;10.050;2024-02-28T04:46:37;101349.81;;;20.47;39.54
76973;BME280;65907;53.640;10.050;2024-02-28T04:49:03;101350.78;;;20.46;39.56
76973;BME280;65907;53.640;10.050;2024-02-28T04:51:31;101352.44;;;20.47;39.61
76973;BME280;65907;53.640;10.050;2024-02-28T04:53:56;101358.38;;;20.49;39.57
76973;BME280;65907;53.640;10.050;2024-02-28T04:56:21;101355.03;;;20.47;39.71
76973;BME280;65907;53.640;10.050;2024-02-28T04:58:47;101362.28;;;20.44;39.42
76973;BME280;65907;53.640;10.050;2024-02-28T05:01:12;101364.78;;;20.45;39.62
76973;BME280;65907;53.640;10.050;2024-02-28T05:03:40;101370.94;;;20.44;39.60
76973;BME280;65907;53.640;10.050;2024-02-28T05:06:06;101384.13;;;20.43;39.69
76973;BME280;65907;53.640;10.050;2024-02-28T05:08:31;101382.34;;;20.43;39.61
76973;BME280;65907;53.640;10.050;2024-02-28T05:10:56;101377.97;;;20.44;39.46
76973;BME280;65907;53.640;10.050;2024-02-28T05:13:24;101386.84;;;20.41;39.57
76973;BME280;65907;53.640;10.050;2024-02-28T05:15:49;101380.88;;;20.39;39.38
76973;BME280;65907;53.640;10.050;2024-02-28T05:18:15;101382.56;;;20.40;39.52
76973;BME280;65907;53.640;10.050;2024-02-28T05:20:40;101386.00;;;20.41;39.64
76973;BME280;65907;53.640;10.050;2024-02-28T05:23:06;101398.22;;;20.40;39.44
76973;BME280;65907;53.640;10.050;2024-02-28T05:25:31;101397.50;;;20.38;39.56
76973;BME280;65907;53.640;10.050;2024-02-28T05:27:56;101402.72;;;20.38;39.45
76973;BME280;65907;53.640;10.050;2024-02-28T05:30:24;101400.13;;;20.38;39.48
76973;BME280;65907;53.640;10.050;2024-02-28T05:32:52;101402.00;;;20.36;39.67
76973;BME280;65907;53.640;10.050;2024-02-28T05:35:17;101404.50;;;20.38;39.48
76973;BME280;65907;53.640;10.050;2024-02-28T05:37:44;101403.75;;;20.35;39.42
76973;BME280;65907;53.640;10.050;2024-02-28T05:40:09;101404.63;;;20.36;39.46
76973;BME280;65907;53.640;10.050;2024-02-28T05:42:34;101408.03;;;20.37;39.33
76973;BME280;65907;53.640;10.050;2024-02-28T05:44:59;101415.78;;;20.38;39.20
76973;BME280;65907;53.640;10.050;2024-02-28T05:47:25;101414.13;;;20.37;39.22
76973;BME280;65907;53.640;10.050;2024-02-28T05:49:50;101421.31;;;20.33;39.14
76973;BME280;65907;53.640;10.050;2024-02-28T05:52:15;101419.56;;;20.34;39.40
76973;BME280;65907;53.640;10.050;2024-02-28T05:54:40;101418.72;;;20.33;39.42
76973;BME280;65907;53.640;10.050;2024-02-28T05:57:07;101421.22;;;20.35;39.58
76973;BME280;65907;53.640;10.050;2024-02-28T05:59:33;101427.41;;;20.34;39.52
76973;BME280;65907;53.640;10.050;2024-02-28T06:01:58;101418.84;;;20.32;39.58
76973;BME280;65907;53.640;10.050;2024-02-28T06:04:23;101429.28;;;20.32;39.27
76973;BME280;65907;53.640;10.050;2024-02-28T06:06:48;101420.72;;;20.30;39.49
76973;BME280;65907;53.640;10.050;2024-02-28T06:09:18;101419.03;;;20.29;39.34
76973;BME280;65907;53.640;10.050;2024-02-28T06:11:43;101423.44;;;20.28;39.47
76973;BME280;65907;53.640;10.050;2024-02-28T06:14:08;101419.16;;;20.27;39.54
76973;BME280;65907;53.640;10.050;2024-02-28T06:16:34;101426.03;;;20.28;39.22
76973;BME280;65907;53.640;10.050;2024-02-28T06:18:59;101433.97;;;20.27;39.52
76973;BME280;65907;53.640;10.050;2024-02-28T06:21:27;101428.88;;;20.25;39.48
76973;BME280;65907;53.640;10.050;2024-02-28T06:23:55;101432.22;;;20.27;39.61
76973;BME280;65907;53.640;10.050;2024-02-28T06:26:20;101433.97;;;20.27;39.22
76973;BME280;65907;53.640;10.050;2024-02-28T06:28:48;101434.09;;;20.25;39.40
76973;BME280;65907;53.640;10.050;2024-02-28T06:31:16;101440.13;;;20.26;39.20
76973;BME280;65907;53.640;10.050;2024-02-28T06:33:44;101441.81;;;20.27;39.11
76973;BME280;65907;53.640;10.050;2024-02-28T06:36:09;101439.31;;;20.25;39.03
76973;BME280;65907;53.640;10.050;2024-02-28T06:38:34;101437.53;;;20.26;39.42
76973;BME280;65907;53.640;10.050;2024-02-28T06:41:01;101442.97;;;20.23;39.35
76973;BME280;65907;53.640;10.050;2024-02-28T06:43:30;101442.13;;;20.22;39.36
76973;BME280;65907;53.640;10.050;2024-02-28T06:45:57;101450.78;;;20.23;39.43
76973;BME280;65907;53.640;10.050;2024-02-28T06:48:25;101452.59;;;20.22;39.17
76973;BME280;65907;53.640;10.050;2024-02-28T06:50:50;101450.78;;;20.23;39.11
76973;BME280;65907;53.640;10.050;2024-02-28T06:53:15;101445.56;;;20.23;39.11
76973;BME280;65907;53.640;10.050;2024-02-28T06:55:42;101445.69;;;20.21;39.19
76973;BME280;65907;53.640;10.050;2024-02-28T06:58:07;101447.47;;;20.20;39.32
76973;BME280;65907;53.640;10.050;2024-02-28T07:00:32;101449.03;;;20.23;39.45
76973;BME280;65907;53.640;10.050;2024-02-28T07:03:00;101451.88;;;20.20;39.50
76973;BME280;65907;53.640;10.050;2024-02-28T07:05:29;101453.53;;;20.21;39.30
76973;BME280;65907;53.640;10.050;2024-02-28T07:07:54;101448.31;;;20.21;39.32
76973;BME280;65907;53.640;10.050;2024-02-28T07:10:22;101458.75;;;20.21;39.26
76973;BME280;65907;53.640;10.050;2024-02-28T07:12:48;101456.97;;;20.22;39.41
76973;BME280;65907;53.640;10.050;2024-02-28T07:15:13;101468.25;;;20.22;39.33
76973;BME280;65907;53.640;10.050;2024-02-28T07:17:39;101464.78;;;20.22;39.27
76973;BME280;65907;53.640;10.050;2024-02-28T07:20:04;101467.41;;;20.22;39.35
76973;BME280;65907;53.640;10.050;2024-02-28T07:22:29;101471.91;;;20.19;39.37
76973;BME280;65907;53.640;10.050;2024-02-28T07:24:54;101475.44;;;20.18;39.18
76973;BME280;65907;53.640;10.050;2024-02-28T07:27:21;101477.13;;;20.19;39.33
76973;BME280;65907;53.640;10.050;2024-02-28T07:29:47;101479.81;;;20.18;39.06
76973;BME280;65907;53.640;10.050;2024-02-28T07:32:12;101477.34;;;20.16;39.27
76973;BME280;65907;53.640;10.050;2024-02-28T07:34:37;101481.53;;;20.19;39.19
76973;BME280;65907;53.640;10.050;2024-02-28T07:37:02;101481.53;;;20.19;39.07
76973;BME280;65907;53.640;10.050;2024-02-28T07:39:28;101476.41;;;20.17;39.11
76973;BME280;65907;53.640;10.050;2024-02-28T07:41:53;101481.63;;;20.17;39.30
76973;BME280;65907;53.640;10.050;2024-02-28T07:44:18;101478.16;;;20.17;39.39
76973;BME280;65907;53.640;10.050;2024-02-28T07:46:43;101478.06;;;20.18;38.89
76973;BME280;65907;53.640;10.050;2024-02-28T07:49:09;101485.91;;;20.18;39.15
76973;BME280;65907;53.640;10.050;2024-02-28T07:51:35;101485.91;;;20.18;39.13
76973;BME280;65907;53.640;10.050;2024-02-28T07:54:01;101490.28;;;20.18;39.15
76973;BME280;65907;53.640;10.050;2024-02-28T07:56:26;101498.00;;;20.19;38.98
76973;BME280;65907;53.640;10.050;2024-02-28T07:58:51;101490.19;;;20.19;39.30
76973;BME280;65907;53.640;10.050;2024-02-28T08:01:17;101492.78;;;20.19;39.04
76973;BME280;65907;53.640;10.050;2024-02-28T08:03:42;101487.56;;;20.19;38.90
76973;BME280;65907;53.640;10.050;2024-02-28T08:06:08;101492.78;;;20.19;39.07
76973;BME280;65907;53.640;10.050;2024-02-28T08:08:36;101499.69;;;20.20;39.05
76973;BME280;65907;53.640;10.050;2024-02-28T08:11:01;101503.16;;;20.21;38.96
76973;BME280;65907;53.640;10.050;2024-02-28T08:13:28;101513.47;;;20.23;39.04
76973;BME280;65907;53.640;10.050;2024-02-28T08:15:53;101509.09;;;20.23;39.00
76973;BME280;65907;53.640;10.050;2024-02-28T08:18:18;101515.13;;;20.24;39.03
76973;BME280;65907;53.640;10.050;2024-02-28T08:20:44;101505.44;;;20.26;39.20
76973;BME280;65907;53.640;10.050;2024-02-28T08:23:09;101503.66;;;20.26;39.27
76973;BME280;65907;53.640;10.050;2024-02-28T08:25:37;101503.66;;;20.26;39.15
76973;BME280;65907;53.640;10.050;2024-02-28T08:28:03;101505.44;;;20.26;39.02
76973;BME280;65907;53.640;10.050;2024-02-28T08:30:28;101510.56;;;20.27;39.31
76973;BME280;65907;53.640;10.050;2024-02-28T08:32:53;101511.50;;;20.26;38.97
76973;BME280;65907;53.640;10.050;2024-02-28T08:35:21;101505.34;;;20.27;39.22
76973;BME280;65907;53.640;10.050;2024-02-28T08:37:48;101511.38;;;20.28;39.22
76973;BME280;65907;53.640;10.050;2024-02-28T08:40:13;101504.38;;;20.28;38.96
76973;BME280;65907;53.640;10.050;2024-02-28T08:42:39;101500.75;;;20.31;39.14
76973;BME280;65907;53.640;10.050;2024-02-28T08:45:04;101493.84;;;20.30;38.94
76973;BME280;65907;53.640;10.050;2024-02-28T08:47:31;101502.50;;;20.30;39.21
76973;BME280;65907;53.640;10.050;2024-02-28T08:49:56;101507.63;;;20.32;39.06
76973;BME280;65907;53.640;10.050;2024-02-28T08:52:21;101510.13;;;20.33;38.71
76973;BME280;65907;53.640;10.050;2024-02-28T08:54:47;101503.22;;;20.32;38.92
76973;BME280;65907;53.640;10.050;2024-02-28T08:57:12;101506.69;;;20.33;38.89
76973;BME280;65907;53.640;10.050;2024-02-28T08:59:38;101511.91;;;20.33;38.89
76973;BME280;65907;53.640;10.050;2024-02-28T09:02:05;101517.16;;;20.33;38.72
76973;BME280;65907;53.640;10.050;2024-02-28T09:04:32;101510.13;;;20.33;38.96
76973;BME280;65907;53.640;10.050;2024-02-28T09:06:59;101520.56;;;20.33;39.23
76973;BME280;65907;53.640;10.050;2024-02-28T09:09:24;101520.56;;;20.33;39.01
76973;BME280;65907;53.640;10.050;2024-02-28T09:11:49;101511.91;;;20.33;39.04
76973;BME280;65907;53.640;10.050;2024-02-28T09:14:15;101517.97;;;20.33;39.23
76973;BME280;65907;53.640;10.050;2024-02-28T09:16:40;101514.53;;;20.33;39.22
76973;BME280;65907;53.640;10.050;2024-02-28T09:19:05;101518.81;;;20.34;38.91
76973;BME280;65907;53.640;10.050;2024-02-28T09:21:30;101522.47;;;20.31;38.99
76973;BME280;65907;53.640;10.050;2024-02-28T09:23:56;101523.31;;;20.32;39.15
76973;BME280;65907;53.640;10.050;2024-02-28T09:26:21;101525.72;;;20.35;39.17
76973;BME280;65907;53.640;10.050;2024-02-28T09:28:49;101524.78;;;20.36;39.40
76973;BME280;65907;53.640;10.050;2024-02-28T09:31:14;101521.31;;;20.35;39.28
76973;BME280;65907;53.640;10.050;2024-02-28T09:33:40;101524.78;;;20.36;39.13
76973;BME280;65907;53.640;10.050;2024-02-28T09:36:06;101519.53;;;20.36;39.25
76973;BME280;65907;53.640;10.050;2024-02-28T09:38:31;101529.06;;;20.37;39.35
76973;BME280;65907;53.640;10.050;2024-02-28T09:40:57;101523.09;;;20.35;39.32
76973;BME280;65907;53.640;10.050;2024-02-28T09:43:44;101536.25;;;20.33;39.04
76973;BME280;65907;53.640;10.050;2024-02-28T09:46:08;101543.16;;;20.34;39.49
76973;BME280;65907;53.640;10.050;2024-02-28T09:48:41;101536.16;;;20.35;39.25
76973;BME280;65907;53.640;10.050;2024-02-28T09:51:09;101533.53;;;20.35;39.38
76973;BME280;65907;53.640;10.050;2024-02-28T09:53:37;101537.91;;;20.34;39.18
76973;BME280;65907;53.640;10.050;2024-02-28T09:56:03;101540.53;;;20.34;39.42
76973;BME280;65907;53.640;10.050;2024-02-28T09:58:28;101551.09;;;20.33;39.28
76973;BME280;65907;53.640;10.050;2024-02-28T10:00:59;101545.97;;;20.31;39.43
76973;BME280;65907;53.640;10.050;2024-02-28T10:03:24;101548.69;;;20.30;39.45
76973;BME280;65907;53.640;10.050;2024-02-28T10:05:50;101558.22;;;20.31;39.50
76973;BME280;65907;53.640;10.050;2024-02-28T10:08:15;101554.66;;;20.32;39.30
76973;BME280;65907;53.640;10.050;2024-02-28T10:10:47;101564.25;;;20.31;39.37
76973;BME280;65907;53.640;10.050;2024-02-28T10:13:12;101563.53;;;20.29;39.27
76973;BME280;65907;53.640;10.050;2024-02-28T10:15:37;101571.34;;;20.29;39.38
76973;BME280;65907;53.640;10.050;2024-02-28T10:18:05;101569.69;;;20.28;39.25
76973;BME280;65907;53.640;10.050;2024-02-28T10:20:31;101573.03;;;20.30;39.24
76973;BME280;65907;53.640;10.050;2024-02-28T10:22:56;101575.34;;;20.35;39.43
76973;BME280;65907;53.640;10.050;2024-02-28T10:25:22;101579.63;;;20.36;39.18
76973;BME280;65907;53.640;10.050;2024-02-28T10:27:47;101570.94;;;20.35;39.49
76973;BME280;65907;53.640;10.050;2024-02-28T10:30:12;101576.06;;;20.37;39.53
76973;BME280;65907;53.640;10.050;2024-02-28T10:32:47;101584.72;;;20.38;39.49
76973;BME280;65907;53.640;10.050;2024-02-28T10:35:13;101586.53;;;20.37;39.82
76973;BME280;65907;53.640;10.050;2024-02-28T10:37:41;101581.28;;;20.37;39.57
76973;BME280;65907;53.640;10.050;2024-02-28T10:40:06;101577.75;;;20.38;39.76
76973;BME280;65907;53.640;10.050;2024-02-28T10:42:32;101581.16;;;20.39;39.96
76973;BME280;65907;53.640;10.050;2024-02-28T10:44:58;101586.41;;;20.39;39.87
76973;BME280;65907;53.640;10.050;2024-02-28T10:47:24;101587.34;;;20.38;39.87
76973;BME280;65907;53.640;10.050;2024-02-28T10:49:52;101586.59;;;20.35;40.14
76973;BME280;65907;53.640;10.050;2024-02-28T10:52:18;101581.38;;;20.35;39.90
76973;BME280;65907;53.640;10.050;2024-02-28T10:54:46;101573.53;;;20.35;39.90
76973;BME280;65907;53.640;10.050;2024-02-28T10:57:18;101581.38;;;20.35;39.66
76973;BME280;65907;53.640;10.050;2024-02-28T10:59:44;101577.09;;;20.34;39.86
76973;BME280;65907;53.640;10.050;2024-02-28T11:02:09;101578.78;;;20.35;39.79
76973;BME280;65907;53.640;10.050;2024-02-28T11:04:37;101575.44;;;20.33;39.68
76973;BME280;65907;53.640;10.050;2024-02-28T11:07:03;101577.22;;;20.33;40.08
76973;BME280;65907;53.640;10.050;2024-02-28T11:09:28;101582.44;;;20.33;40.04
76973;BME280;65907;53.640;10.050;2024-02-28T11:11:55;101580.78;;;20.32;39.60
76973;BME280;65907;53.640;10.050;2024-02-28T11:14:24;101575.53;;;20.32;39.87
76973;BME280;65907;53.640;10.050;2024-02-28T11:17:04;101570.31;;;20.32;39.84
76973;BME280;65907;53.640;10.050;2024-02-28T11:19:30;101565.84;;;20.34;39.50
76973;BME280;65907;53.640;10.050;2024-02-28T11:21:56;101559.75;;;20.33;39.77
76973;BME280;65907;53.640;10.050;2024-02-28T11:24:22;101564.16;;;20.33;39.86
76973;BME280;65907;53.640;10.050;2024-02-28T11:26:48;101566.84;;;20.31;39.78
76973;BME280;65907;53.640;10.050;2024-02-28T11:29:13;101566.03;;;20.31;39.57
76973;BME280;65907;53.640;10.050;2024-02-28T11:31:38;101565.19;;;20.30;39.33
76973;BME280;65907;53.640;10.050;2024-02-28T11:34:03;101568.66;;;20.31;39.40
76973;BME280;65907;53.640;10.050;2024-02-28T11:36:29;101558.22;;;20.31;39.51
76973;BME280;65907;53.640;10.050;2024-02-28T11:38:54;101561.75;;;20.30;39.16
76973;BME280;65907;53.640;10.050;2024-02-28T11:41:28;101564.38;;;20.30;39.44
76973;BME280;65907;53.640;10.050;2024-02-28T11:43:55;101554.00;;;20.28;39.55
76973;BME280;65907;53.640;10.050;2024-02-28T11:46:22;101567.91;;;20.29;39.27
76973;BME280;65907;53.640;10.050;2024-02-28T11:48:48;101564.47;;;20.28;39.17
76973;BME280;65907;53.640;10.050;2024-02-28T11:51:14;101563.59;;;20.28;39.12
76973;BME280;65907;53.640;10.050;2024-02-28T11:53:39;101565.41;;;20.27;39.27
76973;BME280;65907;53.640;10.050;2024-02-28T11:56:04;101570.09;;;20.22;39.30
76973;BME280;65907;53.640;10.050;2024-02-28T11:58:29;101561.31;;;20.23;39.51
76973;BME280;65907;53.640;10.050;2024-02-28T12:00:55;101570.72;;;20.26;39.60
76973;BME280;65907;53.640;10.050;2024-02-28T12:03:23;101563.91;;;19.83;35.89
76973;BME280;65907;53.640;10.050;2024-02-28T12:05:48;101565.03;;;19.66;36.42
76973;BME280;65907;53.640;10.050;2024-02-28T12:08:14;101561.91;;;19.73;38.24
76973;BME280;65907;53.640;10.050;2024-02-28T12:10:39;101562.03;;;19.85;38.71
76973;BME280;65907;53.640;10.050;2024-02-28T12:13:04;101563.25;;;19.94;38.44
76973;BME280;65907;53.640;10.050;2024-02-28T12:15:32;101563.69;;;20.00;38.35
76973;BME280;65907;53.640;10.050;2024-02-28T12:17:58;101560.75;;;20.05;38.34
76973;BME280;65907;53.640;10.050;2024-02-28T12:20:26;101556.28;;;20.07;38.62
76973;BME280;65907;53.640;10.050;2024-02-28T12:22:51;101554.41;;;20.09;38.43
76973;BME280;65907;53.640;10.050;2024-02-28T12:25:18;101551.69;;;20.11;38.43
76973;BME280;65907;53.640;10.050;2024-02-28T12:27:44;101546.59;;;20.09;38.31
76973;BME280;65907;53.640;10.050;2024-02-28T12:30:09;101545.66;;;20.10;38.49
76973;BME280;65907;53.640;10.050;2024-02-28T12:32:34;101541.25;;;20.11;38.57
76973;BME280;65907;53.640;10.050;2024-02-28T12:34:59;101546.47;;;20.11;38.75